createdAt,value
2023-01-03T00:00:58.825Z,970.93
2023-01-03T00:01:58.770Z,970.5
2023-01-03T00:02:58.725Z,970.26
2023-01-03T00:03:58.779Z,969.97
2023-01-03T00:04:58.747Z,969.51
2023-01-03T00:05:58.695Z,969.2
2023-01-03T00:06:58.710Z,968.23
2023-01-03T00:07:58.724Z,967.74
2023-01-03T00:08:58.703Z,967.35
2023-01-03T00:09:58.704Z,966.36
2023-01-03T00:10:58.738Z,966.4
2023-01-03T00:11:58.724Z,965.63
2023-01-03T00:12:58.735Z,965.59
2023-01-03T00:13:58.723Z,965.1
2023-01-03T00:14:58.718Z,964.55
2023-01-03T00:15:58.715Z,964.14
2023-01-03T00:16:58.806Z,963.83
2023-01-03T00:17:58.746Z,963.93
2023-01-03T00:18:58.718Z,963.83
2023-01-03T00:19:58.724Z,963.54
2023-01-03T00:20:58.734Z,962.92
2023-01-03T00:21:58.742Z,963.06
2023-01-03T00:22:58.755Z,962.61
2023-01-03T00:23:58.750Z,962.29
2023-01-03T00:24:58.750Z,962.28
2023-01-03T00:25:58.728Z,961.62
2023-01-03T00:26:58.770Z,961.57
2023-01-03T00:27:58.754Z,961.27
2023-01-03T00:28:58.736Z,960.79
2023-01-03T00:29:58.744Z,960.83
2023-01-03T00:30:58.761Z,960.55
2023-01-03T00:31:58.739Z,960.14
2023-01-03T00:32:58.792Z,959.92
2023-01-03T00:33:58.748Z,959.42
2023-01-03T00:35:03.056Z,958.64
2023-01-03T00:35:58.754Z,958.73
2023-01-03T00:36:58.772Z,958.21
2023-01-03T00:37:58.777Z,957.46
2023-01-03T00:38:58.754Z,957.17
2023-01-03T00:39:58.756Z,956.37
2023-01-03T00:40:58.762Z,955.64
2023-01-03T00:41:58.779Z,955.08
2023-01-03T00:42:58.782Z,955.1
2023-01-03T00:43:58.766Z,955.13
2023-01-03T00:44:58.766Z,954.99
2023-01-03T00:45:58.875Z,954.68
2023-01-03T00:46:58.764Z,954.82
2023-01-03T00:47:58.785Z,954.23
2023-01-03T00:48:58.789Z,954.15
2023-01-03T00:49:58.773Z,954.12
2023-01-03T00:50:58.772Z,954.07
2023-01-03T00:51:58.793Z,953.5
2023-01-03T00:52:58.803Z,953.55
2023-01-03T00:53:58.788Z,953.04
2023-01-03T00:54:58.781Z,953.22
2023-01-03T00:55:58.783Z,952.7
2023-01-03T00:56:58.795Z,952.08
2023-01-03T00:57:58.808Z,952.05
2023-01-03T00:58:58.782Z,952.13
2023-01-03T00:59:58.789Z,951.77
2023-01-03T01:00:58.806Z,951.71
2023-01-03T01:01:58.914Z,951.69
2023-01-03T01:02:58.947Z,951.78
2023-01-03T01:03:58.848Z,952.05
2023-01-03T01:04:58.817Z,951.77
2023-01-03T01:05:58.793Z,951.35
2023-01-03T01:06:58.804Z,950.67
2023-01-03T01:08:01.580Z,951.35
2023-01-03T01:08:58.808Z,950.76
2023-01-03T01:09:58.803Z,950.25
2023-01-03T01:10:58.799Z,949.55
2023-01-03T01:11:58.812Z,948.72
2023-01-03T01:12:58.805Z,947.91
2023-01-03T01:13:58.822Z,947.45
2023-01-03T01:14:58.822Z,947.36
2023-01-03T01:15:58.864Z,946.44
2023-01-03T01:16:58.815Z,946.41
2023-01-03T01:17:58.815Z,945.58
2023-01-03T01:19:01.859Z,945.65
2023-01-03T01:19:58.829Z,945.63
2023-01-03T01:20:58.847Z,944.97
2023-01-03T01:21:58.825Z,944.34
2023-01-03T01:22:58.826Z,943.94
2023-01-03T01:23:58.835Z,943.59
2023-01-03T01:24:58.825Z,943.05
2023-01-03T01:25:58.826Z,942.43
2023-01-03T01:26:58.835Z,942.32
2023-01-03T01:27:58.825Z,941.67
2023-01-03T01:28:58.827Z,941.34
2023-01-03T01:30:01.617Z,941.03
2023-01-03T01:30:58.908Z,940.92
2023-01-03T01:31:58.849Z,940.24
2023-01-03T01:32:58.837Z,940.54
2023-01-03T01:33:58.844Z,939.81
2023-01-03T01:34:58.897Z,939.39
2023-01-03T01:35:58.843Z,938.81
2023-01-03T01:36:58.869Z,939.05
2023-01-03T01:37:58.846Z,938.44
2023-01-03T01:38:58.850Z,938.17
2023-01-03T01:39:58.846Z,937.44
2023-01-03T01:41:01.665Z,937.25
2023-01-03T01:41:58.859Z,936.83
2023-01-03T01:42:58.860Z,936.4
2023-01-03T01:43:58.863Z,935.89
2023-01-03T01:44:58.876Z,935.17
2023-01-03T01:45:58.900Z,935.12
2023-01-03T01:46:58.866Z,935.14
2023-01-03T01:47:58.860Z,934.92
2023-01-03T01:48:58.869Z,934.58
2023-01-03T01:49:58.864Z,934.58
2023-01-03T01:50:58.872Z,934.43
2023-01-03T01:51:58.865Z,934.4
2023-01-03T01:52:58.930Z,934.34
2023-01-03T01:53:58.873Z,934.05
2023-01-03T01:54:58.895Z,934.35
2023-01-03T01:55:58.875Z,934.25
2023-01-03T01:56:58.875Z,934.43
2023-01-03T01:57:58.883Z,934.59
2023-01-03T01:58:58.877Z,935.21
2023-01-03T01:59:58.882Z,935.11
2023-01-03T02:00:58.887Z,935.89
2023-01-03T02:01:59.031Z,936.03
2023-01-03T02:02:59.005Z,936.03
2023-01-03T02:03:58.896Z,936.22
2023-01-03T02:04:58.891Z,936.34
2023-01-03T02:05:58.887Z,936.61
2023-01-03T02:06:58.902Z,936.67
2023-01-03T02:07:58.891Z,936.56
2023-01-03T02:08:58.937Z,936.67
2023-01-03T02:09:58.904Z,937.07
2023-01-03T02:10:58.905Z,937.45
2023-01-03T02:11:58.909Z,937.9
2023-01-03T02:12:58.909Z,938
2023-01-03T02:13:58.932Z,937.7
2023-01-03T02:14:58.910Z,938.01
2023-01-03T02:15:58.921Z,938.19
2023-01-03T02:16:58.915Z,938.31
2023-01-03T02:17:58.917Z,938.45
2023-01-03T02:18:58.979Z,938.5
2023-01-03T02:19:58.921Z,938.58
2023-01-03T02:20:58.915Z,938.59
2023-01-03T02:21:58.923Z,937.95
2023-01-03T02:22:58.912Z,937.76
2023-01-03T02:23:58.941Z,937.99
2023-01-03T02:24:58.947Z,938.25
2023-01-03T02:25:58.925Z,938.91
2023-01-03T02:26:58.928Z,938.88
2023-01-03T02:27:58.932Z,938.62
2023-01-03T02:28:58.951Z,938.76
2023-01-03T02:29:58.926Z,938.53
2023-01-03T02:30:58.977Z,938.69
2023-01-03T02:31:58.929Z,938.64
2023-01-03T02:32:58.937Z,938.35
2023-01-03T02:33:58.963Z,938.02
2023-01-03T02:34:58.953Z,937.5
2023-01-03T02:35:58.941Z,936.94
2023-01-03T02:36:58.939Z,936.84
2023-01-03T02:37:58.945Z,936.64
2023-01-03T02:38:58.964Z,936.4
2023-01-03T02:39:58.949Z,936.09
2023-01-03T02:40:58.977Z,935.11
2023-01-03T02:41:58.956Z,934.64
2023-01-03T02:42:58.954Z,934.21
2023-01-03T02:43:58.975Z,934.17
2023-01-03T02:44:58.953Z,933.4
2023-01-03T02:45:59.026Z,932.57
2023-01-03T02:46:59.004Z,932.13
2023-01-03T02:47:58.955Z,930.96
2023-01-03T02:48:58.979Z,930.39
2023-01-03T02:49:58.968Z,929.47
2023-01-03T02:50:58.976Z,928.89
2023-01-03T02:51:58.967Z,928.29
2023-01-03T02:52:58.971Z,927.31
2023-01-03T02:53:58.998Z,926.89
2023-01-03T02:54:58.972Z,926.58
2023-01-03T02:55:58.976Z,926.2
2023-01-03T02:56:59.008Z,925.76
2023-01-03T02:57:58.969Z,924.74
2023-01-03T02:58:58.999Z,924.87
2023-01-03T02:59:58.976Z,923.99
2023-01-03T03:00:58.974Z,923.71
2023-01-03T03:01:59.028Z,923.7
2023-01-03T03:02:59.065Z,923.28
2023-01-03T03:03:59.033Z,923.59
2023-01-03T03:04:59.012Z,923
2023-01-03T03:05:58.990Z,923.01
2023-01-03T03:06:58.996Z,922.77
2023-01-03T03:07:58.994Z,922.73
2023-01-03T03:08:59.019Z,922.32
2023-01-03T03:09:59.000Z,922.42
2023-01-03T03:10:58.991Z,922.08
2023-01-03T03:11:58.991Z,922.46
2023-01-03T03:12:59.018Z,921.92
2023-01-03T03:13:59.045Z,921.93
2023-01-03T03:14:59.000Z,921.5
2023-01-03T03:15:59.084Z,920.86
2023-01-03T03:16:59.003Z,920.86
2023-01-03T03:17:59.034Z,920.24
2023-01-03T03:18:59.032Z,920.23
2023-01-03T03:20:03.224Z,919.95
2023-01-03T03:20:59.010Z,919.59
2023-01-03T03:21:59.011Z,918.84
2023-01-03T03:22:59.015Z,918.35
2023-01-03T03:23:59.040Z,917.59
2023-01-03T03:24:59.017Z,917.39
2023-01-03T03:25:59.019Z,916.15
2023-01-03T03:26:59.033Z,914.57
2023-01-03T03:27:59.024Z,913.74
2023-01-03T03:28:59.083Z,911.84
2023-01-03T03:29:59.028Z,910.64
2023-01-03T03:30:59.052Z,909.44
2023-01-03T03:31:59.022Z,908.85
2023-01-03T03:32:59.027Z,907.43
2023-01-03T03:33:59.058Z,906.33
2023-01-03T03:35:02.061Z,905.31
2023-01-03T03:35:59.038Z,903.85
2023-01-03T03:36:59.032Z,902.9
2023-01-03T03:37:59.036Z,901.35
2023-01-03T03:38:59.058Z,901.01
2023-01-03T03:39:59.044Z,900.25
2023-01-03T03:40:59.044Z,899.63
2023-01-03T03:41:59.039Z,898.98
2023-01-03T03:42:59.051Z,898.97
2023-01-03T03:43:59.071Z,897.96
2023-01-03T03:45:02.554Z,897.42
2023-01-03T03:46:01.802Z,896.91
2023-01-03T03:47:04.047Z,896.37
2023-01-03T03:47:59.050Z,895.91
2023-01-03T03:48:59.077Z,894.94
2023-01-03T03:49:59.054Z,894.48
2023-01-03T03:50:59.052Z,893.82
2023-01-03T03:51:59.057Z,893.71
2023-01-03T03:52:59.071Z,893.36
2023-01-03T03:53:59.100Z,892.16
2023-01-03T03:54:59.058Z,892.21
2023-01-03T03:55:59.064Z,891.47
2023-01-03T03:57:01.815Z,890.59
2023-01-03T03:57:59.074Z,889.55
2023-01-03T03:58:59.087Z,888.95
2023-01-03T03:59:59.079Z,888.21
2023-01-03T04:00:59.096Z,886.62
2023-01-03T04:01:59.138Z,885.54
2023-01-03T04:02:59.181Z,884.22
2023-01-03T04:03:59.143Z,882.39
2023-01-03T04:04:59.081Z,880.61
2023-01-03T04:05:59.087Z,878.77
2023-01-03T04:06:59.084Z,876.82
2023-01-03T04:08:02.165Z,875.64
2023-01-03T04:08:59.120Z,874.17
2023-01-03T04:09:59.087Z,873.57
2023-01-03T04:10:59.089Z,872.13
2023-01-03T04:11:59.085Z,871.26
2023-01-03T04:12:59.092Z,870.6
2023-01-03T04:13:59.116Z,869.3
2023-01-03T04:14:59.095Z,868.16
2023-01-03T04:15:59.134Z,867.75
2023-01-03T04:16:59.215Z,866.49
2023-01-03T04:17:59.096Z,865.73
2023-01-03T04:18:59.124Z,864.98
2023-01-03T04:19:59.108Z,864.14
2023-01-03T04:20:59.101Z,862.82
2023-01-03T04:21:59.107Z,861.4
2023-01-03T04:22:59.106Z,860.36
2023-01-03T04:23:59.139Z,858.86
2023-01-03T04:24:59.117Z,857.75
2023-01-03T04:25:59.118Z,856.79
2023-01-03T04:26:59.117Z,855.68
2023-01-03T04:27:59.120Z,855.68
2023-01-03T04:28:59.134Z,854.67
2023-01-03T04:29:59.116Z,854.4
2023-01-03T04:30:59.117Z,854.63
2023-01-03T04:31:59.155Z,853.49
2023-01-03T04:32:59.143Z,853.42
2023-01-03T04:33:59.144Z,851.92
2023-01-03T04:34:59.136Z,850.73
2023-01-03T04:35:59.134Z,849.59
2023-01-03T04:36:59.126Z,848.31
2023-01-03T04:37:59.128Z,847.1
2023-01-03T04:38:59.153Z,845.62
2023-01-03T04:39:59.136Z,844.61
2023-01-03T04:40:59.144Z,844.45
2023-01-03T04:41:59.141Z,844.47
2023-01-03T04:42:59.142Z,844.33
2023-01-03T04:43:59.177Z,844.33
2023-01-03T04:44:59.160Z,843.89
2023-01-03T04:45:59.217Z,843.71
2023-01-03T04:46:59.142Z,843.77
2023-01-03T04:47:59.148Z,842.97
2023-01-03T04:48:59.193Z,842.39
2023-01-03T04:49:59.148Z,842.38
2023-01-03T04:50:59.147Z,841.78
2023-01-03T04:51:59.147Z,841.64
2023-01-03T04:52:59.153Z,841.24
2023-01-03T04:53:59.183Z,840.92
2023-01-03T04:54:59.152Z,839.78
2023-01-03T04:55:59.153Z,837.27
2023-01-03T04:56:59.154Z,835.6
2023-01-03T04:57:59.166Z,833.84
2023-01-03T04:58:59.181Z,831.02
2023-01-03T04:59:59.161Z,828.51
2023-01-03T05:00:59.246Z,826.01
2023-01-03T05:01:59.272Z,824.05
2023-01-03T05:02:59.172Z,821.6
2023-01-03T05:03:59.223Z,819.76
2023-01-03T05:04:59.189Z,818.15
2023-01-03T05:05:59.170Z,815.71
2023-01-03T05:06:59.173Z,813.95
2023-01-03T05:07:59.178Z,811.28
2023-01-03T05:08:59.202Z,809.07
2023-01-03T05:09:59.190Z,807.31
2023-01-03T05:10:59.183Z,804.97
2023-01-03T05:11:59.184Z,803.94
2023-01-03T05:12:59.180Z,802.63
2023-01-03T05:13:59.196Z,801.26
2023-01-03T05:14:59.181Z,799.23
2023-01-03T05:15:59.186Z,797.47
2023-01-03T05:16:59.227Z,795.59
2023-01-03T05:17:59.194Z,794.05
2023-01-03T05:18:59.204Z,792.39
2023-01-03T05:19:59.201Z,790.91
2023-01-03T05:20:59.328Z,788.77
2023-01-03T05:21:59.208Z,787.91
2023-01-03T05:22:59.201Z,786.99
2023-01-03T05:23:59.218Z,786.3
2023-01-03T05:24:59.202Z,786.09
2023-01-03T05:25:59.205Z,786.09
2023-01-03T05:26:59.194Z,785.99
2023-01-03T05:27:59.199Z,785.41
2023-01-03T05:28:59.217Z,785.9
2023-01-03T05:29:59.209Z,785.59
2023-01-03T05:30:59.202Z,784.87
2023-01-03T05:31:59.272Z,784.63
2023-01-03T05:32:59.209Z,783.12
2023-01-03T05:33:59.233Z,781.21
2023-01-03T05:34:59.208Z,779.54
2023-01-03T05:35:59.205Z,777.78
2023-01-03T05:36:59.326Z,775.91
2023-01-03T05:37:59.209Z,774.33
2023-01-03T05:38:59.242Z,772.14
2023-01-03T05:39:59.211Z,770.97
2023-01-03T05:40:59.211Z,769.71
2023-01-03T05:41:59.211Z,767.8
2023-01-03T05:42:59.219Z,765.46
2023-01-03T05:43:59.242Z,763.54
2023-01-03T05:44:59.222Z,761.67
2023-01-03T05:45:59.290Z,759.66
2023-01-03T05:46:59.223Z,758.06
2023-01-03T05:47:59.227Z,755.93
2023-01-03T05:48:59.252Z,754.58
2023-01-03T05:49:59.231Z,752.21
2023-01-03T05:50:59.227Z,750.62
2023-01-03T05:51:59.224Z,748.84
2023-01-03T05:52:59.347Z,747.11
2023-01-03T05:53:59.282Z,745.01
2023-01-03T05:54:59.242Z,744.45
2023-01-03T05:55:59.236Z,742.84
2023-01-03T05:56:59.239Z,741.74
2023-01-03T05:57:59.241Z,740.63
2023-01-03T05:58:59.264Z,738.85
2023-01-03T05:59:59.240Z,737.59
2023-01-03T06:00:59.241Z,735.99
2023-01-03T06:02:02.088Z,734.11
2023-01-03T06:02:59.287Z,732.72
2023-01-03T06:03:59.294Z,731.92
2023-01-03T06:04:59.243Z,730.39
2023-01-03T06:05:59.241Z,728.93
2023-01-03T06:06:59.250Z,726.64
2023-01-03T06:07:59.243Z,726.22
2023-01-03T06:08:59.304Z,724.39
2023-01-03T06:09:59.275Z,724.18
2023-01-03T06:10:59.254Z,723.73
2023-01-03T06:11:59.258Z,722.91
2023-01-03T06:13:02.144Z,722.4
2023-01-03T06:13:59.279Z,722.22
2023-01-03T06:14:59.249Z,722.47
2023-01-03T06:15:59.254Z,723.15
2023-01-03T06:16:59.389Z,723.75
2023-01-03T06:17:59.267Z,723.86
2023-01-03T06:18:59.291Z,724.24
2023-01-03T06:19:59.267Z,724.09
2023-01-03T06:20:59.264Z,724.17
2023-01-03T06:21:59.261Z,723.56
2023-01-03T06:22:59.275Z,722.91
2023-01-03T06:24:00.971Z,723.29
2023-01-03T06:24:59.291Z,723.07
2023-01-03T06:25:59.266Z,723.24
2023-01-03T06:26:59.276Z,722.45
2023-01-03T06:27:59.269Z,722.6
2023-01-03T06:28:59.278Z,722.59
2023-01-03T06:29:59.273Z,723.09
2023-01-03T06:30:59.324Z,723.21
2023-01-03T06:32:02.266Z,723.19
2023-01-03T06:32:59.271Z,723.23
2023-01-03T06:33:59.274Z,723.46
2023-01-03T06:35:02.084Z,723.04
2023-01-03T06:35:59.292Z,722.6
2023-01-03T06:36:59.286Z,722.43
2023-01-03T06:37:59.287Z,721.1
2023-01-03T06:38:59.289Z,721.1
2023-01-03T06:39:59.310Z,720.42
2023-01-03T06:40:59.310Z,720.4
2023-01-03T06:41:59.285Z,720.72
2023-01-03T06:42:59.289Z,720.18
2023-01-03T06:43:59.290Z,720.84
2023-01-03T06:44:59.291Z,721.46
2023-01-03T06:46:02.328Z,722.49
2023-01-03T06:46:59.293Z,722.73
2023-01-03T06:47:59.287Z,722.87
2023-01-03T06:48:59.299Z,722.94
2023-01-03T06:49:59.298Z,722.98
2023-01-03T06:50:59.323Z,723.43
2023-01-03T06:51:59.301Z,723.41
2023-01-03T06:52:59.299Z,723.73
2023-01-03T06:53:59.303Z,723.79
2023-01-03T06:54:59.299Z,724.8
2023-01-03T06:55:59.318Z,724.68
2023-01-03T06:56:59.325Z,724.72
2023-01-03T06:57:59.303Z,724.15
2023-01-03T06:58:59.313Z,724.38
2023-01-03T06:59:59.339Z,723.93
2023-01-03T07:00:59.364Z,723.9
2023-01-03T07:01:59.451Z,723.4
2023-01-03T07:02:59.388Z,723.09
2023-01-03T07:03:59.350Z,722.12
2023-01-03T07:04:59.385Z,721.38
2023-01-03T07:05:59.314Z,719.86
2023-01-03T07:06:59.315Z,718.41
2023-01-03T07:07:59.323Z,718.18
2023-01-03T07:08:59.363Z,717.36
2023-01-03T07:09:59.320Z,716.4
2023-01-03T07:10:59.327Z,715.09
2023-01-03T07:11:59.324Z,713.74
2023-01-03T07:12:59.353Z,712.41
2023-01-03T07:13:59.329Z,711.61
2023-01-03T07:14:59.324Z,710.5
2023-01-03T07:15:59.376Z,709.3
2023-01-03T07:16:59.324Z,707.52
2023-01-03T07:18:00.341Z,706.81
2023-01-03T07:18:59.336Z,704.99
2023-01-03T07:19:59.328Z,704.36
2023-01-03T07:20:59.340Z,704.4
2023-01-03T07:21:59.331Z,703.15
2023-01-03T07:22:59.338Z,702.28
2023-01-03T07:23:59.343Z,701.62
2023-01-03T07:24:59.332Z,700.47
2023-01-03T07:25:59.335Z,700.2
2023-01-03T07:26:59.341Z,699.92
2023-01-03T07:28:05.500Z,699.24
2023-01-03T07:28:59.369Z,699.16
2023-01-03T07:29:59.346Z,699.16
2023-01-03T07:30:59.365Z,698.32
2023-01-03T07:31:59.340Z,697.88
2023-01-03T07:32:59.348Z,698.33
2023-01-03T07:33:59.351Z,698.5
2023-01-03T07:34:59.351Z,698.49
2023-01-03T07:35:59.354Z,699.06
2023-01-03T07:36:59.347Z,697.68
2023-01-03T07:37:59.360Z,698.16
2023-01-03T07:38:59.347Z,698
2023-01-03T07:39:59.369Z,699.05
2023-01-03T07:40:59.357Z,700.05
2023-01-03T07:41:59.353Z,700.3
2023-01-03T07:42:59.364Z,701.13
2023-01-03T07:43:59.355Z,700.96
2023-01-03T07:44:59.429Z,700.83
2023-01-03T07:45:59.414Z,700.84
2023-01-03T07:46:59.361Z,700.31
2023-01-03T07:47:59.369Z,700.55
2023-01-03T07:48:59.367Z,699.81
2023-01-03T07:49:59.367Z,699.85
2023-01-03T07:50:59.364Z,698.79
2023-01-03T07:51:59.365Z,699.13
2023-01-03T07:52:59.366Z,698.96
2023-01-03T07:53:59.375Z,698.82
2023-01-03T07:54:59.373Z,698.95
2023-01-03T07:55:59.383Z,698.94
2023-01-03T07:56:59.387Z,699.72
2023-01-03T07:57:59.379Z,699.85
2023-01-03T07:58:59.381Z,700.37
2023-01-03T07:59:59.378Z,701.02
2023-01-03T08:00:59.461Z,701.38
2023-01-03T08:01:59.485Z,702.38
2023-01-03T08:02:59.414Z,703.39
2023-01-03T08:03:59.387Z,704.27
2023-01-03T08:04:59.408Z,705.79
2023-01-03T08:05:59.385Z,706.87
2023-01-03T08:06:59.379Z,708.43
2023-01-03T08:07:59.386Z,709.8
2023-01-03T08:09:04.253Z,710.63
2023-01-03T08:09:59.396Z,712.81
2023-01-03T08:10:59.398Z,713.96
2023-01-03T08:11:59.398Z,715.44
2023-01-03T08:12:59.396Z,716.31
2023-01-03T08:13:59.390Z,716.46
2023-01-03T08:14:59.397Z,717.24
2023-01-03T08:15:59.446Z,718.93
2023-01-03T08:16:59.451Z,719.94
2023-01-03T08:17:59.401Z,720.51
2023-01-03T08:18:59.399Z,720.98
2023-01-03T08:19:59.401Z,721.18
2023-01-03T08:20:59.407Z,722.24
2023-01-03T08:21:59.408Z,722.72
2023-01-03T08:22:59.403Z,724.03
2023-01-03T08:23:59.406Z,725.62
2023-01-03T08:24:59.406Z,726.97
2023-01-03T08:25:59.409Z,728.76
2023-01-03T08:26:59.410Z,730.7
2023-01-03T08:27:59.413Z,732.76
2023-01-03T08:29:05.270Z,734.2
2023-01-03T08:29:59.408Z,736.78
2023-01-03T08:30:59.439Z,738.37
2023-01-03T08:31:59.432Z,740.53
2023-01-03T08:32:59.442Z,743.18
2023-01-03T08:33:59.422Z,745.45
2023-01-03T08:34:59.420Z,748.43
2023-01-03T08:35:59.419Z,750.38
2023-01-03T08:36:59.422Z,752.45
2023-01-03T08:37:59.422Z,754.2
2023-01-03T08:39:02.158Z,756.74
2023-01-03T08:40:01.011Z,758.65
2023-01-03T08:40:59.422Z,760.26
2023-01-03T08:41:59.437Z,761.68
2023-01-03T08:42:59.429Z,764.99
2023-01-03T08:43:59.426Z,766.75
2023-01-03T08:44:59.429Z,768.78
2023-01-03T08:46:02.426Z,770.17
2023-01-03T08:46:59.456Z,772.28
2023-01-03T08:47:59.428Z,774.42
2023-01-03T08:48:59.459Z,776.34
2023-01-03T08:49:59.440Z,778.64
2023-01-03T08:51:02.190Z,780.56
2023-01-03T08:52:00.463Z,783.21
2023-01-03T08:52:59.445Z,785.32
2023-01-03T08:53:59.435Z,787.08
2023-01-03T08:54:59.437Z,788.91
2023-01-03T08:55:59.437Z,791.35
2023-01-03T08:56:59.450Z,793.7
2023-01-03T08:57:59.476Z,796.02
2023-01-03T08:58:59.443Z,798.14
2023-01-03T08:59:59.452Z,799.21
2023-01-03T09:00:59.452Z,801.78
2023-01-03T09:02:02.592Z,804.59
2023-01-03T09:02:59.737Z,806.83
2023-01-03T09:03:59.510Z,808.5
2023-01-03T09:04:59.477Z,811.02
2023-01-03T09:05:59.460Z,813.39
2023-01-03T09:06:59.458Z,815.77
2023-01-03T09:07:59.461Z,818.1
2023-01-03T09:08:59.459Z,820.44
2023-01-03T09:09:59.466Z,822.76
2023-01-03T09:10:59.485Z,824.24
2023-01-03T09:11:59.468Z,826.85
2023-01-03T09:13:02.573Z,828.48
2023-01-03T09:13:59.467Z,830.07
2023-01-03T09:14:59.472Z,830.92
2023-01-03T09:15:59.648Z,833.12
2023-01-03T09:16:59.577Z,834.16
2023-01-03T09:17:59.475Z,836.14
2023-01-03T09:18:59.468Z,837.69
2023-01-03T09:19:59.471Z,840.06
2023-01-03T09:20:59.504Z,842.65
2023-01-03T09:21:59.470Z,844.45
2023-01-03T09:22:59.482Z,845.82
2023-01-03T09:24:02.249Z,847.7
2023-01-03T09:24:59.491Z,848.84
2023-01-03T09:25:59.483Z,849.78
2023-01-03T09:26:59.489Z,850.44
2023-01-03T09:27:59.483Z,851.82
2023-01-03T09:28:59.489Z,853.28
2023-01-03T09:29:59.484Z,854.98
2023-01-03T09:30:59.502Z,856.55
2023-01-03T09:31:59.570Z,858.32
2023-01-03T09:32:59.498Z,860.49
2023-01-03T09:33:59.487Z,862.29
2023-01-03T09:34:59.500Z,863.49
2023-01-03T09:35:59.502Z,865.38
2023-01-03T09:36:59.516Z,866.67
2023-01-03T09:38:02.495Z,868.59
2023-01-03T09:38:59.501Z,869.36
2023-01-03T09:39:59.505Z,870.58
2023-01-03T09:40:59.500Z,871.68
2023-01-03T09:41:59.505Z,872.09
2023-01-03T09:42:59.501Z,872.76
2023-01-03T09:43:59.533Z,873.43
2023-01-03T09:44:59.503Z,873.99
2023-01-03T09:45:59.505Z,874.58
2023-01-03T09:46:59.551Z,875.86
2023-01-03T09:47:59.510Z,876.66
2023-01-03T09:48:59.522Z,877.61
2023-01-03T09:51:32.330Z,879.02
2023-01-03T09:52:32.323Z,879.29
2023-01-03T09:53:32.301Z,880.21
2023-01-03T09:54:33.348Z,881.42
2023-01-03T09:55:32.339Z,882.09
2023-01-03T09:56:32.300Z,882.77
2023-01-03T09:57:32.306Z,883.45
2023-01-03T09:58:32.320Z,883.89
2023-01-03T09:59:32.305Z,884.72
2023-01-03T10:00:32.415Z,884.44
2023-01-03T10:01:32.459Z,885.84
2023-01-03T10:02:32.406Z,886.59
2023-01-03T10:03:32.363Z,887.28
2023-01-03T10:04:32.313Z,888.02
2023-01-03T10:05:32.341Z,888.85
2023-01-03T10:06:32.320Z,889.75
2023-01-03T10:07:32.321Z,890.24
2023-01-03T10:08:32.353Z,890.98
2023-01-03T10:09:32.328Z,891.82
2023-01-03T10:10:32.362Z,893.24
2023-01-03T10:11:32.346Z,893.08
2023-01-03T10:12:32.318Z,893.27
2023-01-03T10:13:32.345Z,893.63
2023-01-03T10:14:32.343Z,894.03
2023-01-03T10:15:32.369Z,894.04
2023-01-03T10:16:32.432Z,895.16
2023-01-03T10:17:32.337Z,896.3
2023-01-03T10:18:32.334Z,897.39
2023-01-03T10:19:32.347Z,897.68
2023-01-03T10:20:33.301Z,898.86
2023-01-03T10:21:32.339Z,899.6
2023-01-03T10:22:32.335Z,900.52
2023-01-03T10:23:32.343Z,901.41
2023-01-03T10:24:32.368Z,902.04
2023-01-03T10:25:32.377Z,902.49
2023-01-03T10:26:33.061Z,903.78
2023-01-03T10:27:32.350Z,903.87
2023-01-03T10:28:32.348Z,904.79
2023-01-03T10:29:32.345Z,905.11
2023-01-03T10:30:32.368Z,905.34
2023-01-03T10:31:32.501Z,906.23
2023-01-03T10:32:32.374Z,907.22
2023-01-03T10:33:32.360Z,907.85
2023-01-03T10:34:33.358Z,909.08
2023-01-03T10:35:32.443Z,909.87
2023-01-03T10:36:32.356Z,910.86
2023-01-03T10:37:32.358Z,911.15
2023-01-03T10:38:35.308Z,911.66
2023-01-03T10:39:32.399Z,912.23
2023-01-03T10:40:32.508Z,912.75
2023-01-03T10:41:32.376Z,913.54
2023-01-03T10:42:32.367Z,914.38
2023-01-03T10:43:32.382Z,915.29
2023-01-03T10:44:32.431Z,916.16
2023-01-03T10:45:36.096Z,917.44
2023-01-03T10:46:32.451Z,917.84
2023-01-03T10:47:32.378Z,918.92
2023-01-03T10:48:46.006Z,918.97
2023-01-03T10:49:34.417Z,919.35
2023-01-03T10:50:34.411Z,918.97
2023-01-03T10:51:40.249Z,919.55
2023-01-03T10:52:34.399Z,920.02
2023-01-03T10:53:34.394Z,919.83
2023-01-03T10:54:34.389Z,920.41
2023-01-03T10:55:34.476Z,920.55
2023-01-03T10:56:34.398Z,920.08
2023-01-03T10:57:34.390Z,920.28
2023-01-03T10:58:36.604Z,920.04
2023-01-03T10:59:34.401Z,919.8
2023-01-03T11:00:34.426Z,919.49
2023-01-03T11:01:34.556Z,919.26
2023-01-03T11:02:34.590Z,919.12
2023-01-03T11:03:34.473Z,918.74
2023-01-03T11:04:34.403Z,919.01
2023-01-03T11:05:34.429Z,918.25
2023-01-03T11:06:34.431Z,918.24
2023-01-03T11:07:34.414Z,917.47
2023-01-03T11:08:34.422Z,916.64
2023-01-03T11:09:34.419Z,916.53
2023-01-03T11:10:34.448Z,916.04
2023-01-03T11:11:34.460Z,915.6
2023-01-03T11:12:34.454Z,915.33
2023-01-03T11:13:34.427Z,915.01
2023-01-03T11:14:34.440Z,914.83
2023-01-03T11:15:38.615Z,913.97
2023-01-03T11:16:34.459Z,914.33
2023-01-03T11:17:37.413Z,914.25
2023-01-03T11:18:34.431Z,913.72
2023-01-03T11:19:34.432Z,913.86
2023-01-03T11:20:34.455Z,913.99
2023-01-03T11:21:34.434Z,914.35
2023-01-03T11:22:37.378Z,914.62
2023-01-03T11:23:34.432Z,914.82
2023-01-03T11:24:34.437Z,916.18
2023-01-03T11:25:34.461Z,916.13
2023-01-03T11:26:34.433Z,916.75
2023-01-03T11:27:34.475Z,917.45
2023-01-03T11:28:34.435Z,917.28
2023-01-03T11:29:34.439Z,917.33
2023-01-03T11:30:34.476Z,917.25
2023-01-03T11:31:34.484Z,917.15
2023-01-03T11:32:34.451Z,917.55
2023-01-03T11:33:34.440Z,917.63
2023-01-03T11:34:55.347Z,918.76
2023-01-03T11:35:34.487Z,918.92
2023-01-03T11:36:34.459Z,919.95
2023-01-03T11:37:34.464Z,919.12
2023-01-03T11:38:34.458Z,920.21
2023-01-03T11:39:34.480Z,920.78
2023-01-03T11:40:34.496Z,922.34
2023-01-03T11:41:34.467Z,923.73
2023-01-03T11:42:34.462Z,925.91
2023-01-03T11:43:34.484Z,927.74
2023-01-03T11:44:34.468Z,930.57
2023-01-03T11:45:34.521Z,933.26
2023-01-03T11:46:34.535Z,936.17
2023-01-03T11:47:34.475Z,938.99
2023-01-03T11:48:34.465Z,941.38
2023-01-03T11:49:34.478Z,944.33
2023-01-03T11:50:34.518Z,947.04
2023-01-03T11:51:34.474Z,949.11
2023-01-03T11:52:34.483Z,951.02
2023-01-03T11:53:37.379Z,953.36
2023-01-03T11:54:34.484Z,955.6
2023-01-03T11:55:34.514Z,957.98
2023-01-03T11:56:34.479Z,960.97
2023-01-03T11:57:34.508Z,963.99
2023-01-03T11:58:34.500Z,965.97
2023-01-03T11:59:34.516Z,969.09
2023-01-03T12:00:34.530Z,970.75
2023-01-03T12:01:39.206Z,972.45
2023-01-03T12:02:34.496Z,973.66
2023-01-03T12:03:34.703Z,974.1
2023-01-03T12:04:37.595Z,974.54
2023-01-03T12:05:34.527Z,974.64
2023-01-03T12:06:34.502Z,973.71
2023-01-03T12:07:47.328Z,973.03
2023-01-03T12:08:34.525Z,972.31
2023-01-03T12:09:34.512Z,971.82
2023-01-03T12:10:34.525Z,971.5
2023-01-03T12:11:34.513Z,971.15
2023-01-03T12:12:34.518Z,970.95
2023-01-03T12:13:34.519Z,970.62
2023-01-03T12:14:34.535Z,970.51
2023-01-03T12:15:36.202Z,970.67
2023-01-03T12:16:34.590Z,970.97
2023-01-03T12:17:34.519Z,971.13
2023-01-03T12:18:34.594Z,971.19
2023-01-03T12:19:34.521Z,970.88
2023-01-03T12:20:34.524Z,971.2
2023-01-03T12:21:34.531Z,970.71
2023-01-03T12:22:34.527Z,970.98
2023-01-03T12:23:34.591Z,970.9
2023-01-03T12:24:34.534Z,970.93
2023-01-03T12:25:34.534Z,971
2023-01-03T12:26:37.297Z,970.37
2023-01-03T12:27:34.528Z,970.06
2023-01-03T12:28:34.543Z,970.03
2023-01-03T12:29:34.540Z,970.29
2023-01-03T12:30:34.535Z,970.9
2023-01-03T12:31:35.041Z,971.85
2023-01-03T12:32:34.542Z,972.6